Terminal Aerodrome Forecast
Issued by NWS

Home | Current Version | Previous Version | Text Only | Print | Product List | Glossary On
Versions: 1 2 3 4 5 6 7 8 9 10 11 12 13 14
000
FTUS45 KTFX 012300
TAFLWT
TAF
KLWT 012320Z 0200/0224 28006KT P6SM BKN090
     FM020300 23006KT P6SM SKC
     FM020900 21006KT P6SM BKN250
     FM021800 27007KT P6SM BKN250=

USA.gov is the U.S. government's official web portal to all federal, state and local government web resources and services.